createdAt,value
2018-12-06T00:01:55.889Z,24.17
2018-12-06T00:04:25.343Z,25.13
2018-12-06T00:06:54.184Z,27.30
2018-12-06T00:09:23.001Z,31.80
2018-12-06T00:11:52.795Z,20.47
2018-12-06T00:14:21.595Z,28.80
2018-12-06T00:16:59.116Z,26.70
2018-12-06T00:19:27.900Z,30.33
2018-12-06T00:21:56.810Z,28.30
2018-12-06T00:24:25.623Z,27.23
2018-12-06T00:26:54.487Z,27.03
2018-12-06T00:29:23.320Z,29.10
2018-12-06T00:31:52.878Z,26.73
2018-12-06T00:34:21.710Z,23.40
2018-12-06T00:36:50.506Z,28.53
2018-12-06T00:39:19.315Z,24.97
2018-12-06T00:41:48.131Z,27.30
2018-12-06T00:44:16.934Z,19.23
2018-12-06T00:46:45.764Z,23.73
2018-12-06T00:49:15.499Z,29.47
2018-12-06T00:51:44.584Z,26.87
2018-12-06T00:54:13.410Z,25.33
2018-12-06T00:56:42.247Z,23.50
2018-12-06T00:59:14.722Z,23.23
2018-12-06T01:01:43.599Z,24.37
2018-12-06T01:04:12.389Z,27.47
2018-12-06T01:06:41.208Z,24.00
2018-12-06T01:09:10.013Z,27.20
2018-12-06T01:11:38.833Z,27.27
2018-12-06T01:14:07.637Z,22.17
2018-12-06T01:16:36.675Z,23.93
2018-12-06T01:19:06.500Z,26.30
2018-12-06T01:21:35.732Z,26.23
2018-12-06T01:24:05.075Z,19.37
2018-12-06T01:26:33.885Z,25.80
2018-12-06T01:29:02.676Z,26.73
2018-12-06T01:31:33.562Z,30.33
2018-12-06T01:34:03.027Z,28.73
2018-12-06T01:36:33.236Z,25.53
2018-12-06T01:39:02.130Z,26.87
2018-12-06T01:41:31.500Z,35.13
2018-12-06T01:44:00.619Z,27.47
2018-12-06T01:46:29.431Z,33.17
2018-12-06T01:48:58.327Z,30.70
2018-12-06T01:51:27.931Z,30.50
2018-12-06T01:53:56.755Z,27.67
2018-12-06T01:56:25.570Z,22.77
2018-12-06T01:58:55.044Z,33.50
2018-12-06T02:01:23.948Z,31.30
2018-12-06T02:03:52.756Z,25.87
2018-12-06T02:06:21.592Z,25.93
2018-12-06T02:08:51.111Z,26.67
2018-12-06T02:11:19.916Z,26.30
2018-12-06T02:13:48.718Z,22.03
2018-12-06T02:16:17.668Z,25.97
2018-12-06T02:18:46.511Z,25.13
2018-12-06T02:21:15.326Z,23.77
2018-12-06T02:23:44.191Z,24.83
2018-12-06T02:26:14.685Z,22.70
2018-12-06T02:28:43.538Z,26.07
2018-12-06T02:31:12.652Z,28.47
2018-12-06T02:33:42.142Z,25.53
2018-12-06T02:36:11.673Z,22.07
2018-12-06T02:38:40.489Z,32.83
2018-12-06T02:41:09.307Z,27.27
2018-12-06T02:43:38.101Z,25.20
2018-12-06T02:46:06.936Z,23.53
2018-12-06T02:48:35.727Z,25.93
2018-12-06T02:51:04.992Z,26.27
2018-12-06T02:53:33.795Z,27.40
2018-12-06T02:56:02.601Z,27.47
2018-12-06T02:58:32.136Z,23.70
2018-12-06T03:01:00.947Z,23.07
2018-12-06T03:03:30.067Z,25.33
2018-12-06T03:05:58.899Z,23.80
2018-12-06T03:08:28.248Z,24.90
2018-12-06T03:10:57.052Z,20.93
2018-12-06T03:13:25.882Z,22.90
2018-12-06T03:15:54.896Z,27.70
2018-12-06T03:18:23.704Z,30.27
2018-12-06T03:20:52.518Z,23.37
2018-12-06T03:23:21.372Z,18.70
2018-12-06T03:25:50.235Z,28.93
2018-12-06T03:28:19.027Z,29.27
2018-12-06T03:30:48.025Z,22.23
2018-12-06T03:33:16.871Z,25.80
2018-12-06T03:35:45.698Z,24.10
2018-12-06T03:38:14.498Z,25.70
2018-12-06T03:40:44.527Z,26.33
2018-12-06T03:43:13.373Z,20.63
2018-12-06T03:45:42.202Z,22.73
2018-12-06T03:48:11.601Z,23.83
2018-12-06T03:50:40.535Z,28.50
2018-12-06T03:53:10.000Z,19.87
2018-12-06T03:55:38.847Z,26.07
2018-12-06T03:58:07.652Z,29.23
2018-12-06T04:00:36.483Z,28.67
2018-12-06T04:03:05.520Z,32.47
2018-12-06T04:05:35.044Z,29.13
2018-12-06T04:08:03.852Z,25.80
2018-12-06T04:10:32.725Z,26.17
2018-12-06T04:13:01.695Z,27.03
2018-12-06T04:15:30.573Z,26.80
2018-12-06T04:17:59.384Z,26.57
2018-12-06T04:20:28.687Z,28.27
2018-12-06T04:22:58.157Z,38.13
2018-12-06T04:25:26.959Z,35.20
2018-12-06T04:27:55.826Z,31.97
2018-12-06T04:30:25.106Z,31.53
2018-12-06T04:32:53.924Z,35.13
2018-12-06T04:35:22.735Z,29.97
2018-12-06T04:37:51.554Z,31.13
2018-12-06T04:40:20.364Z,34.33
2018-12-06T04:42:49.210Z,29.37
2018-12-06T04:45:18.039Z,36.67
2018-12-06T04:47:47.563Z,29.27
2018-12-06T04:50:16.365Z,32.57
2018-12-06T04:52:45.205Z,41.10
2018-12-06T04:55:14.018Z,31.43
2018-12-06T04:57:43.549Z,32.87
2018-12-06T05:00:12.387Z,37.80
2018-12-06T05:02:41.187Z,38.27
2018-12-06T05:05:10.545Z,31.77
2018-12-06T05:07:39.788Z,41.03
2018-12-06T05:10:08.688Z,39.80
2018-12-06T05:12:37.521Z,34.77
2018-12-06T05:15:06.351Z,35.23
2018-12-06T05:17:35.989Z,34.90
2018-12-06T05:20:05.253Z,42.10
2018-12-06T05:22:34.055Z,32.57
2018-12-06T05:25:02.882Z,42.07
2018-12-06T05:27:31.700Z,43.67
2018-12-06T05:30:01.479Z,40.43
2018-12-06T05:32:31.366Z,54.07
2018-12-06T05:35:00.190Z,51.87
2018-12-06T05:37:29.033Z,48.67
2018-12-06T05:40:01.115Z,50.70
2018-12-06T05:42:31.789Z,50.73
2018-12-06T05:45:00.622Z,54.63
2018-12-06T05:47:29.430Z,54.07
2018-12-06T05:49:58.275Z,53.50
2018-12-06T05:52:27.112Z,69.63
2018-12-06T05:54:55.959Z,60.17
2018-12-06T05:57:24.792Z,52.50
2018-12-06T05:59:53.613Z,57.73
2018-12-06T06:02:37.785Z,61.60
2018-12-06T06:05:15.125Z,65.13
2018-12-06T06:07:43.963Z,59.57
2018-12-06T06:10:13.328Z,64.23
2018-12-06T06:12:42.826Z,70.53
2018-12-06T06:15:11.695Z,72.23
2018-12-06T06:17:41.203Z,68.13
2018-12-06T06:20:12.769Z,76.40
2018-12-06T06:22:41.612Z,69.63
2018-12-06T06:25:10.516Z,66.80
2018-12-06T06:27:39.952Z,68.63
2018-12-06T06:30:08.855Z,75.93
2018-12-06T06:32:38.335Z,73.73
2018-12-06T06:35:08.275Z,76.90
2018-12-06T06:37:41.408Z,74.37
2018-12-06T06:40:10.188Z,63.00
2018-12-06T06:42:39.061Z,83.20
2018-12-06T06:45:07.889Z,73.13
2018-12-06T06:47:36.710Z,73.00
2018-12-06T06:50:05.612Z,78.63
2018-12-06T06:52:34.443Z,73.23
2018-12-06T06:55:03.312Z,77.90
2018-12-06T06:57:33.111Z,67.73
2018-12-06T07:00:01.931Z,72.37
2018-12-06T07:02:30.747Z,80.33
2018-12-06T07:04:59.559Z,78.87
2018-12-06T07:07:28.914Z,78.93
2018-12-06T07:09:57.708Z,76.43
2018-12-06T07:12:26.535Z,80.20
2018-12-06T07:14:55.338Z,76.83
2018-12-06T07:17:27.699Z,75.87
2018-12-06T07:19:56.556Z,78.43
2018-12-06T07:22:25.397Z,79.20
2018-12-06T07:24:54.220Z,77.23
2018-12-06T07:27:23.039Z,79.10
2018-12-06T07:29:52.121Z,88.17
2018-12-06T07:32:20.959Z,77.93
2018-12-06T07:34:49.849Z,82.17
2018-12-06T07:37:18.664Z,92.40
2018-12-06T07:39:47.504Z,96.97
2018-12-06T07:42:16.377Z,97.53
2018-12-06T07:44:45.241Z,84.53
2018-12-06T07:47:14.051Z,94.73
2018-12-06T07:49:42.951Z,98.73
2018-12-06T07:52:12.761Z,100.53
2018-12-06T07:54:41.706Z,94.40
2018-12-06T07:57:10.861Z,97.77
2018-12-06T07:59:40.276Z,91.23
2018-12-06T08:02:10.273Z,96.97
2018-12-06T08:04:39.260Z,90.90
2018-12-06T08:07:08.119Z,91.73
2018-12-06T08:09:37.862Z,89.73
2018-12-06T08:12:07.359Z,85.57
2018-12-06T08:14:36.156Z,85.90
2018-12-06T08:17:04.993Z,82.00
2018-12-06T08:19:34.132Z,84.87
2018-12-06T08:22:03.914Z,76.10
2018-12-06T08:24:34.165Z,84.87
2018-12-06T08:27:03.074Z,83.60
2018-12-06T08:29:31.872Z,91.90
2018-12-06T08:32:02.377Z,72.50
2018-12-06T08:34:32.767Z,74.33
2018-12-06T08:37:02.108Z,80.07
2018-12-06T08:39:30.949Z,77.93
2018-12-06T08:41:59.799Z,74.77
2018-12-06T08:44:28.627Z,73.43
2018-12-06T08:46:57.450Z,74.60
2018-12-06T08:49:26.297Z,78.80
2018-12-06T08:51:55.237Z,79.57
2018-12-06T08:54:24.068Z,79.10
2018-12-06T08:56:52.878Z,73.30
2018-12-06T08:59:22.728Z,71.23
2018-12-06T09:01:51.548Z,68.23
2018-12-06T09:04:20.350Z,64.77
2018-12-06T09:06:49.184Z,63.87
2018-12-06T09:09:17.999Z,65.13
2018-12-06T09:11:46.824Z,62.53
2018-12-06T09:14:15.636Z,64.40
2018-12-06T09:16:44.504Z,61.70
2018-12-06T09:19:14.749Z,67.03
2018-12-06T09:21:42.167Z,52.83
2018-12-06T09:24:11.001Z,54.93
2018-12-06T09:26:39.827Z,57.80
2018-12-06T09:29:08.629Z,55.33
2018-12-06T09:31:37.432Z,60.97
2018-12-06T09:34:07.229Z,46.73
2018-12-06T09:36:37.286Z,50.60
2018-12-06T09:39:09.256Z,48.43
2018-12-06T09:41:38.175Z,51.97
2018-12-06T09:44:07.057Z,58.03
2018-12-06T09:46:35.871Z,47.30
2018-12-06T09:49:05.085Z,53.50
2018-12-06T09:51:33.916Z,49.40
2018-12-06T09:54:02.746Z,48.23
2018-12-06T09:56:31.642Z,47.23
2018-12-06T09:59:01.716Z,47.33
2018-12-06T10:01:30.550Z,42.77
2018-12-06T10:03:59.368Z,40.43
2018-12-06T10:06:28.184Z,37.43
2018-12-06T10:08:57.007Z,35.63
2018-12-06T10:11:25.823Z,33.43
2018-12-06T10:13:54.631Z,33.03
2018-12-06T10:16:24.852Z,31.03
2018-12-06T10:18:53.672Z,34.93
2018-12-06T10:21:22.516Z,27.80
2018-12-06T10:23:51.358Z,31.17
2018-12-06T10:26:20.292Z,30.27
2018-12-06T10:28:49.103Z,29.07
2018-12-06T10:31:17.928Z,30.77
2018-12-06T10:33:46.752Z,28.77
2018-12-06T10:36:16.375Z,32.10
2018-12-06T10:38:45.241Z,27.30
2018-12-06T10:41:14.108Z,29.97
2018-12-06T10:43:43.031Z,28.87
2018-12-06T10:46:11.886Z,28.40
2018-12-06T10:48:40.704Z,31.73
2018-12-06T10:51:20.964Z,32.47
2018-12-06T10:53:50.048Z,31.70
2018-12-06T10:56:19.601Z,30.27
2018-12-06T10:58:48.403Z,28.23
2018-12-06T11:01:18.799Z,33.40
2018-12-06T11:03:52.921Z,38.77
2018-12-06T11:06:21.735Z,33.20
2018-12-06T11:08:50.603Z,36.13
2018-12-06T11:11:19.386Z,39.63
2018-12-06T11:13:48.218Z,36.27
2018-12-06T11:16:17.058Z,36.47
2018-12-06T11:18:45.952Z,42.07
2018-12-06T11:21:14.820Z,36.87
2018-12-06T11:23:43.704Z,37.93
2018-12-06T11:26:12.608Z,40.43
2018-12-06T11:28:41.353Z,37.03
2018-12-06T11:31:10.200Z,34.23
2018-12-06T11:33:39.298Z,42.37
2018-12-06T11:36:08.097Z,39.30
2018-12-06T11:38:36.978Z,35.07
2018-12-06T11:41:05.815Z,38.27
2018-12-06T11:43:34.663Z,35.17
2018-12-06T11:46:03.493Z,40.33
2018-12-06T11:48:32.328Z,35.27
2018-12-06T11:51:01.140Z,39.97
2018-12-06T11:53:30.011Z,44.43
2018-12-06T11:55:58.881Z,42.63
2018-12-06T11:58:27.780Z,44.07
2018-12-06T12:00:56.592Z,50.20
2018-12-06T12:03:25.482Z,48.73
2018-12-06T12:05:58.509Z,47.77
2018-12-06T12:08:23.123Z,51.37
2018-12-06T12:10:51.992Z,47.03
2018-12-06T12:13:20.828Z,53.77
2018-12-06T12:15:49.683Z,62.50
2018-12-06T12:18:18.531Z,54.10
2018-12-06T12:20:47.363Z,50.70
2018-12-06T12:23:16.282Z,53.03
2018-12-06T12:25:45.097Z,48.07
2018-12-06T12:28:13.973Z,55.43
2018-12-06T12:30:42.912Z,59.57
2018-12-06T12:33:11.724Z,53.73
2018-12-06T12:35:41.205Z,54.50
2018-12-06T12:38:10.001Z,57.33
2018-12-06T12:40:38.816Z,55.80
2018-12-06T12:43:07.672Z,52.40
2018-12-06T12:45:36.527Z,53.33
2018-12-06T12:48:05.400Z,50.97
2018-12-06T12:50:34.255Z,57.60
2018-12-06T12:53:03.583Z,57.87
2018-12-06T12:55:32.431Z,47.37
2018-12-06T12:58:01.384Z,49.27
2018-12-06T13:00:30.251Z,65.50
2018-12-06T13:02:59.067Z,44.17
2018-12-06T13:05:27.862Z,54.27
2018-12-06T13:07:56.816Z,41.90
2018-12-06T13:10:25.618Z,47.40
2018-12-06T13:12:54.408Z,42.43
2018-12-06T13:15:23.285Z,39.20
2018-12-06T13:17:52.108Z,34.70
2018-12-06T13:20:20.948Z,32.47
2018-12-06T13:22:49.829Z,40.77
2018-12-06T13:25:18.631Z,43.43
2018-12-06T13:27:47.488Z,42.27
2018-12-06T13:30:16.343Z,39.17
2018-12-06T13:32:45.256Z,38.40
2018-12-06T13:35:14.030Z,34.13
2018-12-06T13:37:42.929Z,35.70
2018-12-06T13:40:12.337Z,33.03
2018-12-06T13:42:41.172Z,37.63
2018-12-06T13:45:11.016Z,34.00
2018-12-06T13:47:39.797Z,37.63
2018-12-06T13:50:10.720Z,40.10
2018-12-06T13:52:39.624Z,34.27
2018-12-06T13:55:08.441Z,36.17
2018-12-06T13:57:38.157Z,35.87
2018-12-06T14:00:07.980Z,42.60
2018-12-06T14:02:36.791Z,41.13
2018-12-06T14:05:05.637Z,41.83
2018-12-06T14:07:34.492Z,35.87
2018-12-06T14:10:04.040Z,36.37
2018-12-06T14:12:33.503Z,38.17
2018-12-06T14:15:02.299Z,30.00
2018-12-06T14:17:31.107Z,31.27
2018-12-06T14:19:59.962Z,37.30
2018-12-06T14:22:28.805Z,33.47
2018-12-06T14:24:58.603Z,40.73
2018-12-06T14:27:27.644Z,29.20
2018-12-06T14:29:56.495Z,41.50
2018-12-06T14:32:25.299Z,36.07
2018-12-06T14:34:54.164Z,38.83
2018-12-06T14:37:22.978Z,33.03
2018-12-06T14:39:51.864Z,29.47
2018-12-06T14:42:20.804Z,33.77
2018-12-06T14:44:49.853Z,40.53
2018-12-06T14:47:18.648Z,33.53
2018-12-06T14:49:47.472Z,38.30
2018-12-06T14:52:16.313Z,32.77
2018-12-06T14:54:45.365Z,40.07
2018-12-06T14:57:14.216Z,38.13
2018-12-06T14:59:43.166Z,33.33
2018-12-06T15:02:12.047Z,34.93
2018-12-06T15:04:47.929Z,38.73
2018-12-06T15:07:24.267Z,39.47
2018-12-06T15:09:54.190Z,40.77
2018-12-06T15:12:55.480Z,30.33
2018-12-06T15:15:26.080Z,31.20
2018-12-06T15:17:54.971Z,40.23
2018-12-06T15:20:23.793Z,42.27
2018-12-06T15:23:07.855Z,42.40
2018-12-06T15:25:41.768Z,45.90
2018-12-06T15:28:07.918Z,44.07
2018-12-06T15:30:38.732Z,43.50
2018-12-06T15:33:08.753Z,43.37
2018-12-06T15:35:38.197Z,50.93
2018-12-06T15:38:08.128Z,37.77
2018-12-06T15:40:52.776Z,46.93
2018-12-06T15:43:23.717Z,41.67
2018-12-06T15:45:52.767Z,52.33
2018-12-06T15:48:30.630Z,60.00
2018-12-06T15:50:59.485Z,46.17
2018-12-06T15:53:29.291Z,51.07
2018-12-06T15:55:59.339Z,47.00
2018-12-06T15:58:28.125Z,49.70
2018-12-06T16:00:56.977Z,51.33
2018-12-06T16:03:25.837Z,45.20
2018-12-06T16:05:54.655Z,34.97
2018-12-06T16:08:24.670Z,36.13
2018-12-06T16:10:53.500Z,39.40
2018-12-06T16:13:22.350Z,41.20
2018-12-06T16:15:51.146Z,41.13
2018-12-06T16:18:19.963Z,38.83
2018-12-06T16:20:49.786Z,43.97
2018-12-06T16:23:18.644Z,49.53
2018-12-06T16:25:47.475Z,54.40
2018-12-06T16:28:16.361Z,54.17
2018-12-06T16:30:45.260Z,54.97
2018-12-06T16:33:14.139Z,44.00
2018-12-06T16:35:43.159Z,42.77
2018-12-06T16:38:11.937Z,37.60
2018-12-06T16:40:40.781Z,35.27
2018-12-06T16:43:09.591Z,38.13
2018-12-06T16:45:38.396Z,38.80
2018-12-06T16:48:08.589Z,39.50
2018-12-06T16:50:38.806Z,34.60
2018-12-06T16:53:08.123Z,38.07
2018-12-06T16:55:37.623Z,43.73
2018-12-06T16:58:06.484Z,55.17
2018-12-06T17:00:35.336Z,53.53
2018-12-06T17:03:05.379Z,43.50
2018-12-06T17:05:34.214Z,43.43
2018-12-06T17:08:03.055Z,39.33
2018-12-06T17:10:31.985Z,41.20
2018-12-06T17:13:00.792Z,49.73
2018-12-06T17:15:29.680Z,39.73
2018-12-06T17:17:58.531Z,36.57
2018-12-06T17:20:27.352Z,39.53
2018-12-06T17:22:56.399Z,37.10
2018-12-06T17:25:25.216Z,39.23
2018-12-06T17:27:57.825Z,45.80
2018-12-06T17:30:26.696Z,43.43
2018-12-06T17:32:55.671Z,39.07
2018-12-06T17:35:28.491Z,46.27
2018-12-06T17:37:57.912Z,45.60
2018-12-06T17:40:28.261Z,40.20
2018-12-06T17:42:57.124Z,44.13
2018-12-06T17:45:27.019Z,41.87
2018-12-06T17:47:55.977Z,36.07
2018-12-06T17:50:24.831Z,37.90
2018-12-06T17:52:53.728Z,44.43
2018-12-06T17:55:22.565Z,38.57
2018-12-06T17:57:53.114Z,41.13
2018-12-06T18:00:22.884Z,45.17
2018-12-06T18:02:51.760Z,61.17
2018-12-06T18:05:20.604Z,47.47
2018-12-06T18:07:49.425Z,44.27
2018-12-06T18:10:19.244Z,41.87
2018-12-06T18:12:48.092Z,42.33
2018-12-06T18:15:16.983Z,38.27
2018-12-06T18:17:46.313Z,41.07
2018-12-06T18:20:15.234Z,45.00
2018-12-06T18:22:45.075Z,46.33
2018-12-06T18:25:13.944Z,44.30
2018-12-06T18:27:45.051Z,40.87
2018-12-06T18:30:13.879Z,60.37
2018-12-06T18:32:43.896Z,47.47
2018-12-06T18:35:12.707Z,51.03
2018-12-06T18:37:41.540Z,41.77
2018-12-06T18:40:11.338Z,41.43
2018-12-06T18:42:40.197Z,40.53
2018-12-06T18:45:09.040Z,40.50
2018-12-06T18:47:37.927Z,38.53
2018-12-06T18:50:13.209Z,44.77
2018-12-06T18:52:42.011Z,35.77
2018-12-06T18:55:10.916Z,36.03
2018-12-06T18:57:40.852Z,39.67
2018-12-06T19:00:10.954Z,32.50
2018-12-06T19:02:39.823Z,31.30
2018-12-06T19:05:08.661Z,28.70
2018-12-06T19:07:39.405Z,31.13
2018-12-06T19:10:08.255Z,28.83
2018-12-06T19:12:37.136Z,29.03
2018-12-06T19:15:05.971Z,25.90
2018-12-06T19:17:34.873Z,27.87
2018-12-06T19:20:04.691Z,24.87
2018-12-06T19:22:33.533Z,26.77
2018-12-06T19:25:03.339Z,25.13
2018-12-06T19:27:32.151Z,24.00
2018-12-06T19:30:01.692Z,25.47
2018-12-06T19:32:30.524Z,22.97
2018-12-06T19:34:59.712Z,25.83
2018-12-06T19:37:28.520Z,22.90
2018-12-06T19:39:57.392Z,22.37
2018-12-06T19:42:26.339Z,23.53
2018-12-06T19:44:55.198Z,24.43
2018-12-06T19:47:24.100Z,23.07
2018-12-06T19:49:52.974Z,24.80
2018-12-06T19:52:21.816Z,26.00
2018-12-06T19:54:50.638Z,23.97
2018-12-06T19:57:19.451Z,25.83
2018-12-06T19:59:49.092Z,24.33
2018-12-06T20:02:18.544Z,25.63
2018-12-06T20:04:47.373Z,25.17
2018-12-06T20:07:16.283Z,25.77
2018-12-06T20:09:45.116Z,25.00
2018-12-06T20:12:13.991Z,26.83
2018-12-06T20:14:42.826Z,26.20
2018-12-06T20:17:11.661Z,35.63
2018-12-06T20:19:40.468Z,47.50
2018-12-06T20:22:09.287Z,35.63
2018-12-06T20:24:38.327Z,30.53
2018-12-06T20:27:07.315Z,27.77
2018-12-06T20:29:42.705Z,29.67
2018-12-06T20:32:14.619Z,29.10
2018-12-06T20:34:42.688Z,29.47
2018-12-06T20:37:12.769Z,31.43
2018-12-06T20:39:41.612Z,28.90
2018-12-06T20:42:10.432Z,30.33
2018-12-06T20:44:39.292Z,28.40
2018-12-06T20:47:08.191Z,29.97
2018-12-06T20:49:37.016Z,35.23
2018-12-06T20:52:06.875Z,27.13
2018-12-06T20:54:37.539Z,24.57
2018-12-06T20:57:06.424Z,27.20
2018-12-06T20:59:35.315Z,27.53
2018-12-06T21:02:04.130Z,22.77
2018-12-06T21:04:32.956Z,25.40
2018-12-06T21:07:01.780Z,23.70
2018-12-06T21:09:33.149Z,25.10
2018-12-06T21:12:01.945Z,25.53
2018-12-06T21:14:30.861Z,27.07
2018-12-06T21:16:59.737Z,23.43
2018-12-06T21:19:28.572Z,24.73
2018-12-06T21:21:57.409Z,26.97
2018-12-06T21:24:26.328Z,25.23
2018-12-06T21:26:55.175Z,25.53
2018-12-06T21:29:24.497Z,22.23
2018-12-06T21:31:53.338Z,21.20
2018-12-06T21:34:22.291Z,25.80
2018-12-06T21:36:51.349Z,24.63
2018-12-06T21:39:20.258Z,22.20
2018-12-06T21:41:49.520Z,23.20
2018-12-06T21:44:18.364Z,23.97
2018-12-06T21:46:47.424Z,23.70
2018-12-06T21:49:16.244Z,28.63
2018-12-06T21:51:45.079Z,30.17
2018-12-06T21:54:13.913Z,27.87
2018-12-06T21:56:42.784Z,27.87
2018-12-06T21:59:11.609Z,27.85
2018-12-06T22:01:40.458Z,26.93
2018-12-06T22:04:09.340Z,23.33
2018-12-06T22:06:38.174Z,22.80
2018-12-06T22:09:08.256Z,23.73
2018-12-06T22:11:37.128Z,25.20
2018-12-06T22:14:05.953Z,29.13
2018-12-06T22:16:34.798Z,25.97
2018-12-06T22:19:03.610Z,31.57
2018-12-06T22:21:32.430Z,27.27
2018-12-06T22:24:01.283Z,27.13
2018-12-06T22:26:31.499Z,30.43
2018-12-06T22:29:00.624Z,26.93
2018-12-06T22:31:31.503Z,29.77
2018-12-06T22:34:00.334Z,26.30
2018-12-06T22:36:29.698Z,23.73
2018-12-06T22:38:58.527Z,28.03
2018-12-06T22:41:27.360Z,25.23
2018-12-06T22:43:56.235Z,30.80
2018-12-06T22:46:25.243Z,29.60
2018-12-06T22:48:54.286Z,27.37
2018-12-06T22:51:25.259Z,27.87
2018-12-06T22:53:54.337Z,32.00
2018-12-06T22:56:23.340Z,33.20
2018-12-06T22:58:52.121Z,34.30
2018-12-06T23:01:25.149Z,33.00
2018-12-06T23:03:53.991Z,29.73
2018-12-06T23:06:23.037Z,26.77
2018-12-06T23:08:51.835Z,31.77
2018-12-06T23:11:21.640Z,26.33
2018-12-06T23:13:52.127Z,30.30
2018-12-06T23:16:20.992Z,27.13
2018-12-06T23:18:49.815Z,25.97
2018-12-06T23:21:19.148Z,25.13
2018-12-06T23:23:48.116Z,28.70
2018-12-06T23:26:16.961Z,25.03
2018-12-06T23:28:45.780Z,25.47
2018-12-06T23:31:15.487Z,26.33
2018-12-06T23:33:47.811Z,23.43
2018-12-06T23:36:16.627Z,24.60
2018-12-06T23:38:45.447Z,23.87
2018-12-06T23:41:14.286Z,22.67
2018-12-06T23:43:43.164Z,24.67
2018-12-06T23:46:12.989Z,22.47
2018-12-06T23:48:41.896Z,18.97
2018-12-06T23:51:22.060Z,21.23
2018-12-06T23:53:50.869Z,21.00
2018-12-06T23:56:19.733Z,22.73
2018-12-06T23:58:48.514Z,20.57
